Time;durP1;ratioP1;P1;durP2;ratioP2;P2;SDS_P1;SDS_P2;PMS_P1;PMS_P2;Temp;Humidity;BMP_temperature;BMP_pressure;BME280_temperature;BME280_humidity;BME280_pressure;Samples;Min_cycle;Max_cycle;Signal;HPM_P1;HPM_P2
2022/04/25 00:00:56;;;;;;;9.57;5.07;;;;;;;9.45;71.56;100668.88;5027758;28;20069;-72
2022/04/25 00:03:22;;;;;;;10.05;5.55;;;;;;;9.40;71.81;100666.84;5031986;28;20037;-69
2022/04/25 00:05:47;;;;;;;13.48;5.40;;;;;;;9.36;71.82;100670.19;5014374;28;20033;-71
2022/04/25 00:08:13;;;;;;;11.13;5.35;;;;;;;9.33;72.60;100671.47;5032340;28;20033;-70
2022/04/25 00:10:39;;;;;;;12.65;6.00;;;;;;;9.25;73.27;100671.75;5015045;28;20100;-70
2022/04/25 00:13:04;;;;;;;8.55;5.78;;;;;;;9.20;73.04;100674.28;5012231;28;20026;-74
2022/04/25 00:15:29;;;;;;;10.55;5.90;;;;;;;9.19;73.50;100675.31;5012016;28;20032;-73
2022/04/25 00:17:55;;;;;;;13.55;5.60;;;;;;;9.16;72.85;100679.31;5012486;28;20105;-72
2022/04/25 00:20:20;;;;;;;10.27;6.00;;;;;;;9.15;73.28;100683.06;5008710;28;20036;-73
2022/04/25 00:22:46;;;;;;;7.30;5.70;;;;;;;9.08;72.88;100682.28;5034401;28;20125;-74
2022/04/25 00:25:12;;;;;;;10.18;6.07;;;;;;;9.04;73.51;100681.88;5034389;28;20465;-71
2022/04/25 00:27:38;;;;;;;8.68;5.57;;;;;;;9.04;73.94;100679.19;5035398;28;20056;-72
2022/04/25 00:30:04;;;;;;;10.27;5.72;;;;;;;9.01;73.61;100676.09;5035927;28;20453;-71
2022/04/25 00:32:29;;;;;;;10.63;6.00;;;;;;;8.99;74.08;100683.59;5036123;28;20036;-73
2022/04/25 00:34:54;;;;;;;10.80;5.88;;;;;;;8.97;73.73;100678.41;5035905;28;20038;-73
2022/04/25 00:37:20;;;;;;;12.40;6.15;;;;;;;8.94;74.38;100676.16;5017867;28;20038;-69
2022/04/25 00:39:45;;;;;;;11.48;5.97;;;;;;;8.91;73.98;100681.97;5015843;28;20041;-71
2022/04/25 00:42:10;;;;;;;13.90;7.13;;;;;;;8.86;74.84;100676.38;4998391;28;20033;-69
2022/04/25 00:44:36;;;;;;;12.60;7.15;;;;;;;8.85;74.57;100672.06;5023940;28;20044;-69
2022/04/25 00:47:02;;;;;;;15.30;6.47;;;;;;;8.79;74.93;100678.34;5017907;28;20476;-74
2022/04/25 00:49:28;;;;;;;12.85;6.57;;;;;;;8.74;75.46;100680.84;5001424;28;20480;-73
2022/04/25 00:51:53;;;;;;;13.23;6.75;;;;;;;8.69;75.49;100678.78;5035272;28;20036;-71
2022/04/25 00:54:21;;;;;;;13.02;6.55;;;;;;;8.68;74.96;100677.97;5029359;28;20111;-71
2022/04/25 00:56:48;;;;;;;10.48;6.43;;;;;;;8.71;75.68;100671.31;5015446;28;20033;-73
2022/04/25 00:59:16;;;;;;;12.30;6.75;;;;;;;8.61;75.94;100666.38;5015619;28;20038;-74
2022/04/25 01:01:42;;;;;;;9.13;6.82;;;;;;;8.59;75.65;100668.47;5012743;28;20390;-71
2022/04/25 01:04:08;;;;;;;11.20;6.82;;;;;;;8.60;76.41;100674.69;5021600;28;20029;-71
2022/04/25 01:06:34;;;;;;;9.73;6.82;;;;;;;8.62;75.60;100673.44;5035047;28;20025;-71
2022/04/25 01:08:59;;;;;;;15.75;7.22;;;;;;;8.55;76.34;100669.13;5017437;28;20107;-72
2022/04/25 01:11:24;;;;;;;11.88;6.85;;;;;;;8.49;76.67;100671.63;5034659;28;20567;-71
2022/04/25 01:13:50;;;;;;;15.38;7.25;;;;;;;8.47;76.83;100676.44;5012969;28;20378;-74
2022/04/25 01:16:15;;;;;;;13.70;7.55;;;;;;;8.39;76.56;100678.50;5015420;28;20457;-72
2022/04/25 01:18:40;;;;;;;12.65;7.22;;;;;;;8.38;77.12;100671.44;5015183;28;20113;-72
2022/04/25 01:21:10;;;;;;;11.57;7.45;;;;;;;8.31;76.84;100672.31;5015226;28;20034;-75
2022/04/25 01:29:05;;;;;;;13.60;7.15;;;;;;;8.23;77.66;100669.03;5034815;28;20584;-71
2022/04/25 01:31:30;;;;;;;11.63;7.43;;;;;;;8.20;77.52;100664.91;5034961;28;20025;-75
2022/04/25 01:33:55;;;;;;;12.27;7.43;;;;;;;8.19;78.15;100668.63;5008786;28;20030;-73
2022/04/25 01:36:24;;;;;;;12.82;7.90;;;;;;;8.22;77.89;100665.50;5014985;28;20022;-71
2022/04/25 01:38:53;;;;;;;12.75;7.07;;;;;;;8.21;77.75;100665.72;5014766;28;20033;-71
2022/04/25 01:41:19;;;;;;;11.15;7.72;;;;;;;8.24;78.20;100671.50;5014606;28;20473;-73
2022/04/25 01:43:44;;;;;;;12.75;7.57;;;;;;;8.23;77.78;100675.25;5015567;28;20029;-72
2022/04/25 01:46:10;;;;;;;13.15;7.68;;;;;;;8.21;77.98;100674.63;5014796;28;20030;-71
2022/04/25 01:48:35;;;;;;;13.63;7.90;;;;;;;8.19;77.58;100678.59;4997133;28;20035;-74
2022/04/25 01:51:00;;;;;;;12.00;7.82;;;;;;;8.16;77.78;100677.16;5014877;28;20117;-71
2022/04/25 01:53:25;;;;;;;11.93;7.60;;;;;;;8.08;78.34;100672.00;5023968;28;20044;-74
2022/04/25 01:55:51;;;;;;;13.32;8.00;;;;;;;8.07;78.23;100676.56;5034078;28;20544;-73
2022/04/25 01:58:17;;;;;;;12.32;8.07;;;;;;;8.04;78.67;100673.47;5034303;28;20037;-71
2022/04/25 02:00:44;;;;;;;15.00;8.20;;;;;;;8.01;78.65;100676.59;5031718;28;20026;-71
2022/04/25 02:03:10;;;;;;;11.13;7.88;;;;;;;7.96;79.12;100686.13;5026908;28;20025;-74
2022/04/25 02:05:35;;;;;;;15.73;8.52;;;;;;;7.98;78.32;100672.44;5014279;28;20109;-73
2022/04/25 02:08:01;;;;;;;13.07;8.43;;;;;;;7.98;79.37;100672.44;5014108;28;20475;-72
2022/04/25 02:10:26;;;;;;;14.18;8.48;;;;;;;8.04;78.44;100674.28;5014205;28;20050;-72
2022/04/25 02:12:52;;;;;;;12.68;8.82;;;;;;;7.97;78.93;100674.31;5018643;28;20045;-75
2022/04/25 02:15:17;;;;;;;13.40;8.38;;;;;;;7.94;79.01;100671.19;5042583;28;20025;-71
2022/04/25 02:17:42;;;;;;;14.15;9.05;;;;;;;7.91;79.13;100667.09;5036637;28;20033;-71
2022/04/25 02:20:09;;;;;;;14.07;8.82;;;;;;;7.92;78.26;100673.28;5034480;28;20071;-72
2022/04/25 02:22:35;;;;;;;16.38;8.55;;;;;;;7.81;79.24;100672.91;5050833;28;20024;-76
2022/04/25 02:25:01;;;;;;;13.25;8.52;;;;;;;7.75;79.39;100673.75;5033682;28;20030;-72
2022/04/25 02:27:26;;;;;;;13.48;8.90;;;;;;;7.68;80.24;100674.81;5033913;28;20025;-71
2022/04/25 02:29:57;;;;;;;18.38;9.38;;;;;;;7.63;80.07;100673.56;5038563;28;20060;-74
2022/04/25 02:32:23;;;;;;;13.53;8.93;;;;;;;7.65;80.23;100670.66;5033359;28;20116;-73
2022/04/25 02:34:50;;;;;;;16.05;9.27;;;;;;;7.62;80.81;100671.91;5033491;28;20029;-74
2022/04/25 02:37:15;;;;;;;16.98;9.35;;;;;;;7.60;80.35;100667.78;5033666;28;20084;-74
2022/04/25 02:39:41;;;;;;;14.27;8.80;;;;;;;7.58;80.87;100667.97;5033408;28;20033;-77
2022/04/25 02:42:06;;;;;;;17.35;9.43;;;;;;;7.57;81.00;100671.69;5015395;28;20037;-73
2022/04/25 02:44:31;;;;;;;14.13;9.35;;;;;;;7.56;80.76;100662.00;5013393;28;20030;-75
2022/04/25 02:46:57;;;;;;;13.18;8.82;;;;;;;7.56;80.48;100669.22;5013598;28;20071;-75
2022/04/25 02:49:22;;;;;;;15.13;8.85;;;;;;;7.47;80.86;100671.28;4996135;28;20033;-75
2022/04/25 02:51:47;;;;;;;19.38;9.82;;;;;;;7.44;81.32;100655.56;5023463;28;20032;-75
2022/04/25 02:54:12;;;;;;;16.45;9.40;;;;;;;7.45;81.48;100665.31;5033431;28;20038;-77
2022/04/25 02:56:38;;;;;;;15.68;9.30;;;;;;;7.46;81.17;100664.28;5015777;28;20120;-71
2022/04/25 02:59:03;;;;;;;16.35;9.38;;;;;;;7.46;81.46;100669.66;5033010;28;20030;-74
2022/04/25 03:01:28;;;;;;;16.05;8.68;;;;;;;7.44;81.36;100666.31;5023137;28;20121;-70
2022/04/25 03:03:54;;;;;;;16.08;9.77;;;;;;;7.45;81.41;100671.50;5013316;28;20030;-73
2022/04/25 03:06:19;;;;;;;17.00;10.00;;;;;;;7.40;81.07;100665.94;5013391;28;20022;-74
2022/04/25 03:08:44;;;;;;;17.13;10.18;;;;;;;7.36;81.92;100669.25;5013365;28;20033;-74
2022/04/25 03:11:09;;;;;;;13.80;9.07;;;;;;;7.33;82.00;100672.34;5017957;28;20045;-76
2022/04/25 03:13:36;;;;;;;16.65;9.32;;;;;;;7.32;82.00;100673.38;5033199;28;20124;-74
2022/04/25 03:16:03;;;;;;;16.40;10.00;;;;;;;7.37;81.94;100671.72;5032781;28;20041;-75
2022/04/25 03:18:29;;;;;;;14.25;9.23;;;;;;;7.42;82.01;100663.03;5033121;28;20033;-73
2022/04/25 03:20:55;;;;;;;15.45;9.15;;;;;;;7.46;81.82;100672.34;5030024;28;20041;-73
2022/04/25 03:23:23;;;;;;;13.27;9.90;;;;;;;7.49;81.21;100663.00;5013090;28;20033;-71
2022/04/25 03:25:49;;;;;;;16.83;9.85;;;;;;;7.48;81.21;100666.75;5013052;28;20030;-74
2022/04/25 03:28:15;;;;;;;14.63;9.55;;;;;;;7.42;81.43;100668.41;5013070;28;20029;-75
2022/04/25 03:30:41;;;;;;;16.75;9.70;;;;;;;7.41;81.50;100672.13;5013370;28;20088;-75
2022/04/25 03:33:08;;;;;;;12.90;9.27;;;;;;;7.52;81.70;100668.81;5014973;28;20037;-78
2022/04/25 03:35:34;;;;;;;17.65;9.73;;;;;;;7.51;81.17;100675.22;5033040;28;20056;-74
2022/04/25 03:38:00;;;;;;;15.32;10.15;;;;;;;7.58;80.54;100678.75;5032598;28;20079;-74
2022/04/25 03:40:26;;;;;;;15.35;9.73;;;;;;;7.57;80.54;100670.88;5032822;28;20041;-73
2022/04/25 03:42:53;;;;;;;14.00;9.77;;;;;;;7.56;80.75;100675.47;5014292;28;20120;-73
2022/04/25 03:45:19;;;;;;;17.50;10.25;;;;;;;7.57;81.09;100682.47;5012975;28;20076;-74
2022/04/25 03:47:45;;;;;;;15.90;10.18;;;;;;;7.46;80.85;100677.75;5012731;28;20022;-72
2022/04/25 03:50:12;;;;;;;17.08;10.68;;;;;;;7.49;81.09;100679.16;5012926;28;20117;-75
2022/04/25 03:52:40;;;;;;;15.00;10.65;;;;;;;7.43;81.04;100678.16;5016882;28;20481;-72
2022/04/25 03:57:51;;;;;;;17.33;11.15;;;;;;;7.37;81.32;100687.06;5015626;28;20492;-75
2022/04/25 04:00:17;;;;;;;22.95;11.38;;;;;;;7.37;81.85;100685.19;5024594;28;20025;-77
2022/04/25 04:02:43;;;;;;;16.52;10.70;;;;;;;7.32;81.82;100679.59;5034299;28;20227;-74
2022/04/25 04:05:08;;;;;;;18.02;10.60;;;;;;;7.26;81.84;100686.66;5036331;28;20036;-71
2022/04/25 04:07:34;;;;;;;15.10;10.48;;;;;;;7.22;82.00;100685.41;5036672;28;20037;-73
2022/04/25 04:09:59;;;;;;;16.13;10.05;;;;;;;7.19;81.61;100693.06;5012817;28;20038;-75
2022/04/25 04:12:32;;;;;;;14.10;10.02;;;;;;;7.16;82.05;100688.91;5016652;28;20381;-72
2022/04/25 04:15:07;;;;;;;18.13;10.88;;;;;;;7.14;82.62;100693.69;5016423;28;20105;-75
2022/04/25 04:17:34;;;;;;;18.85;11.05;;;;;;;7.06;82.28;100693.88;4998932;28;20072;-71
2022/04/25 04:20:00;;;;;;;17.15;11.38;;;;;;;7.04;82.42;100698.66;5020705;28;20500;-71
2022/04/25 04:22:29;;;;;;;17.30;10.88;;;;;;;7.01;83.28;100699.06;5035837;28;20108;-75
2022/04/25 04:25:03;;;;;;;18.60;11.23;;;;;;;6.97;83.13;100703.19;5035939;28;20029;-77
2022/04/25 04:27:32;;;;;;;17.85;11.55;;;;;;;6.86;83.11;100700.06;5036073;28;20599;-73
2022/04/25 04:29:58;;;;;;;19.67;11.93;;;;;;;6.89;83.56;100702.34;5013558;28;20030;-74
2022/04/25 04:32:29;;;;;;;18.88;11.80;;;;;;;6.85;83.51;100709.16;5016331;28;20037;-74
2022/04/25 04:34:54;;;;;;;19.85;11.88;;;;;;;6.85;83.43;100702.94;5016006;28;20026;-74
2022/04/25 04:37:19;;;;;;;24.38;11.98;;;;;;;6.77;83.62;100703.16;5015843;28;20045;-77
2022/04/25 04:39:45;;;;;;;19.27;12.65;;;;;;;6.78;83.13;100707.47;5018532;28;20527;-70
2022/04/25 04:42:10;;;;;;;19.75;12.13;;;;;;;6.78;83.71;100711.00;5035786;28;20033;-73
2022/04/25 04:44:36;;;;;;;21.83;11.93;;;;;;;6.80;83.46;100714.31;5035913;28;20063;-74
2022/04/25 04:47:01;;;;;;;22.77;12.48;;;;;;;6.80;83.72;100719.69;5035532;28;20373;-73
2022/04/25 04:49:26;;;;;;;18.33;12.18;;;;;;;6.76;84.51;100713.06;5035476;28;20453;-76
2022/04/25 04:51:51;;;;;;;17.63;12.13;;;;;;;6.71;84.88;100716.34;5015892;28;20385;-70
2022/04/25 04:54:17;;;;;;;19.27;12.48;;;;;;;6.68;85.03;100724.00;4997993;28;20034;-72
2022/04/25 04:56:42;;;;;;;22.65;12.52;;;;;;;6.73;84.99;100729.59;5016220;28;20096;-72
2022/04/25 04:59:07;;;;;;;21.35;12.75;;;;;;;6.73;84.97;100729.59;4998035;28;20038;-71
2022/04/25 05:01:33;;;;;;;21.48;12.93;;;;;;;6.75;85.13;100730.25;5012215;28;20041;-72
2022/04/25 05:03:58;;;;;;;21.52;12.82;;;;;;;6.77;85.39;100727.34;5034897;28;20025;-75
2022/04/25 05:06:28;;;;;;;22.52;12.13;;;;;;;6.78;85.16;100737.06;5035131;28;20374;-73
2022/04/25 05:08:54;;;;;;;19.92;12.63;;;;;;;6.76;85.15;100739.94;5034791;28;20030;-75
2022/04/25 05:11:20;;;;;;;18.17;12.63;;;;;;;6.76;85.26;100744.50;5002566;28;20448;-73
2022/04/25 05:13:45;;;;;;;17.75;12.90;;;;;;;6.77;85.45;100749.69;5015510;28;20037;-72
2022/04/25 05:16:11;;;;;;;24.15;11.95;;;;;;;6.77;85.37;100747.00;5015237;28;20476;-75
2022/04/25 05:18:36;;;;;;;18.85;12.32;;;;;;;6.82;85.23;100752.59;5031638;28;20385;-73
2022/04/25 05:21:02;;;;;;;20.20;12.57;;;;;;;6.88;85.65;100745.56;5034899;28;20462;-72
2022/04/25 05:23:28;;;;;;;24.30;13.40;;;;;;;6.90;85.35;100746.22;5034942;28;20065;-71
2022/04/25 05:25:54;;;;;;;21.67;12.70;;;;;;;6.90;85.20;100752.41;5034891;28;20071;-75
2022/04/25 05:28:20;;;;;;;22.92;13.00;;;;;;;6.92;85.71;100757.59;5021010;28;20032;-75
2022/04/25 05:30:46;;;;;;;20.05;12.70;;;;;;;7.01;85.79;100758.25;5015270;28;20397;-73
2022/04/25 05:33:11;;;;;;;18.80;12.63;;;;;;;7.10;85.49;100757.03;5014559;28;20080;-74
2022/04/25 05:35:37;;;;;;;18.60;12.85;;;;;;;7.09;85.33;100760.72;5015054;28;20030;-75
2022/04/25 05:38:03;;;;;;;19.65;12.73;;;;;;;7.07;85.44;100766.31;5025677;28;20053;-72
2022/04/25 05:40:29;;;;;;;18.42;12.75;;;;;;;7.09;85.52;100769.63;5016941;28;20029;-73
2022/04/25 05:42:56;;;;;;;19.55;13.07;;;;;;;7.12;85.53;100770.28;5034131;28;20033;-74
2022/04/25 05:45:24;;;;;;;27.02;14.10;;;;;;;7.10;85.55;100781.22;5034671;28;20105;-76
2022/04/25 05:47:54;;;;;;;20.50;13.18;;;;;;;7.17;86.08;100776.69;5025035;28;20034;-71
2022/04/25 05:53:04;;;;;;;20.83;13.23;;;;;;;7.33;85.45;100783.53;5014664;28;20048;-71
2022/04/25 05:55:29;;;;;;;19.92;13.85;;;;;;;7.40;85.39;100786.25;5014615;28;20029;-74
2022/04/25 05:57:56;;;;;;;22.83;13.68;;;;;;;7.40;85.18;100783.56;5014584;28;20117;-72
2022/04/25 06:00:21;;;;;;;23.88;13.40;;;;;;;7.50;85.03;100789.34;5013426;28;20485;-72
2022/04/25 06:02:47;;;;;;;19.50;13.13;;;;;;;7.54;85.29;100789.78;5013423;28;20033;-76
2022/04/25 06:05:15;;;;;;;20.98;13.48;;;;;;;7.59;84.89;100793.53;4996708;28;20041;-75
2022/04/25 06:07:41;;;;;;;18.60;12.75;;;;;;;7.58;85.36;100791.84;5021442;28;20033;-72
2022/04/25 06:10:08;;;;;;;20.05;13.00;;;;;;;7.62;84.85;100794.94;5033610;28;20441;-73
2022/04/25 06:12:39;;;;;;;19.25;13.43;;;;;;;7.62;85.06;100798.50;5033903;28;20469;-71
2022/04/25 06:15:05;;;;;;;22.77;13.73;;;;;;;7.66;85.25;100798.09;5000031;28;20399;-74
2022/04/25 06:17:30;;;;;;;20.45;13.70;;;;;;;7.73;84.87;100798.88;5033409;28;20033;-72
2022/04/25 06:19:55;;;;;;;22.02;14.18;;;;;;;7.80;85.40;100797.03;5033148;28;20028;-75
2022/04/25 06:22:21;;;;;;;21.92;14.85;;;;;;;7.78;84.51;100804.50;5033846;28;20037;-69
2022/04/25 06:24:46;;;;;;;20.52;14.05;;;;;;;7.77;85.10;100808.22;5033774;28;20424;-73
2022/04/25 06:27:12;;;;;;;24.48;15.02;;;;;;;7.87;85.15;100808.63;5030792;28;20036;-72
2022/04/25 06:29:44;;;;;;;20.27;13.65;;;;;;;7.88;84.80;100802.22;4996643;28;20026;-74
2022/04/25 06:32:13;;;;;;;21.33;15.00;;;;;;;7.90;84.82;100804.72;5013931;28;20032;-81
2022/04/25 06:34:39;;;;;;;22.88;14.45;;;;;;;7.97;85.26;100809.06;5014036;28;20029;-74
2022/04/25 06:37:06;;;;;;;19.30;14.27;;;;;;;8.07;85.32;100810.50;5024289;28;20025;-75
2022/04/25 06:39:31;;;;;;;23.25;14.82;;;;;;;8.03;84.00;100804.69;4996578;28;20385;-75
2022/04/25 06:41:56;;;;;;;21.55;14.85;;;;;;;8.01;84.53;100809.44;5013399;28;20034;-75
2022/04/25 06:44:22;;;;;;;23.60;14.50;;;;;;;7.99;85.13;100812.34;5013552;28;20070;-74
2022/04/25 06:46:47;;;;;;;23.17;15.35;;;;;;;8.02;84.88;100810.25;4996014;28;20037;-73
2022/04/25 06:49:23;;;;;;;20.25;14.48;;;;;;;8.08;84.96;100812.16;5031028;28;20154;-74
2022/04/25 06:51:52;;;;;;;19.70;14.60;;;;;;;8.07;85.11;100815.88;5015558;28;20540;-74
2022/04/25 06:54:18;;;;;;;21.50;14.88;;;;;;;8.10;85.54;100812.75;5033060;28;20059;-75
2022/04/25 06:56:44;;;;;;;28.50;15.38;;;;;;;8.10;85.54;100810.88;5021640;28;20111;-75
2022/04/25 06:59:10;;;;;;;34.83;16.17;;;;;;;8.11;85.46;100817.94;5013292;28;20057;-74
2022/04/25 07:01:36;;;;;;;26.38;16.88;;;;;;;8.24;86.01;100814.38;5010701;28;20029;-77
2022/04/25 07:04:02;;;;;;;23.88;15.93;;;;;;;8.28;85.33;100823.72;5012786;28;20099;-72
2022/04/25 07:06:27;;;;;;;23.00;15.10;;;;;;;8.35;85.83;100815.63;5021239;28;20029;-74
2022/04/25 07:08:52;;;;;;;27.60;15.50;;;;;;;8.36;85.52;100817.25;5014988;28;20103;-72
2022/04/25 07:11:18;;;;;;;26.45;17.30;;;;;;;8.41;85.77;100820.19;5032315;28;20497;-72
2022/04/25 07:13:45;;;;;;;27.02;16.33;;;;;;;8.41;85.56;100832.81;5033208;28;20457;-81
2022/04/25 07:16:14;;;;;;;19.23;15.35;;;;;;;8.40;85.50;100823.09;5031825;28;20366;-75
2022/04/25 07:18:39;;;;;;;22.63;15.68;;;;;;;8.42;85.30;100827.19;5033141;28;20033;-73
2022/04/25 07:28:48;;;;;;;23.10;16.20;;;;;;;8.45;85.76;100818.72;5032641;28;20099;-73
2022/04/25 07:29:19;;;;;;;22.35;17.15;;;;;;;8.64;84.63;100835.06;4997921;28;20050;-74
2022/04/25 07:31:44;;;;;;;28.15;17.23;;;;;;;8.62;85.33;100832.59;4995304;28;20034;-75
2022/04/25 07:34:10;;;;;;;24.15;17.05;;;;;;;8.68;85.24;100839.84;5013538;28;20514;-75
2022/04/25 07:36:36;;;;;;;23.77;16.58;;;;;;;8.73;85.52;100833.78;5007319;28;20037;-78
2022/04/25 07:39:05;;;;;;;23.05;17.30;;;;;;;8.81;85.10;100838.94;5034890;28;20029;-77
2022/04/25 07:41:30;;;;;;;26.33;17.63;;;;;;;8.84;84.80;100832.28;5026074;28;20038;-77
2022/04/25 07:43:56;;;;;;;24.17;18.17;;;;;;;8.85;85.01;100836.66;5015878;28;20488;-78
2022/04/25 07:46:25;;;;;;;24.13;17.75;;;;;;;8.89;84.71;100837.88;5013492;28;20098;-74
2022/04/25 07:48:53;;;;;;;24.30;17.52;;;;;;;8.94;83.88;100838.06;5014389;28;20121;-74
2022/04/25 07:51:19;;;;;;;22.20;17.15;;;;;;;9.00;83.71;100855.28;5024863;28;20392;-76
2022/04/25 07:53:44;;;;;;;21.65;16.88;;;;;;;8.98;83.93;100847.41;5021128;28;20033;-75
2022/04/25 07:56:10;;;;;;;25.52;18.40;;;;;;;8.97;83.49;100853.03;5018730;28;20055;-75
2022/04/25 07:58:36;;;;;;;21.85;17.63;;;;;;;8.97;84.24;100853.03;5025513;28;20030;-74
2022/04/25 08:01:03;;;;;;;26.08;19.10;;;;;;;8.96;83.88;100852.16;5010084;28;20036;-74
2022/04/25 08:03:28;;;;;;;26.98;17.70;;;;;;;8.95;83.80;100861.34;5011829;28;20029;-75
2022/04/25 08:05:54;;;;;;;23.83;18.92;;;;;;;8.94;84.45;100858.84;5001679;28;20092;-75
2022/04/25 08:08:20;;;;;;;25.33;18.00;;;;;;;8.96;84.09;100860.28;5024761;28;20069;-75
2022/04/25 08:10:45;;;;;;;30.85;18.70;;;;;;;8.92;84.43;100859.03;5032038;28;20415;-74
2022/04/25 08:18:39;;;;;;;29.50;19.30;;;;;;;8.82;85.10;100872.16;5014780;28;20172;-75
2022/04/25 08:21:05;;;;;;;24.02;19.25;;;;;;;8.79;86.17;100875.28;5012011;28;20444;-74
2022/04/25 08:23:30;;;;;;;25.67;20.20;;;;;;;8.76;87.26;100873.84;5012433;28;20510;-74
2022/04/25 08:25:55;;;;;;;25.48;20.02;;;;;;;8.79;86.94;100884.22;5012320;28;20030;-74
2022/04/25 08:28:21;;;;;;;25.98;20.13;;;;;;;8.80;87.38;100880.47;5007738;28;20048;-75
2022/04/25 08:30:46;;;;;;;26.63;20.40;;;;;;;8.81;87.30;100882.13;5007206;28;20422;-74
2022/04/25 08:33:12;;;;;;;28.85;21.60;;;;;;;8.89;88.64;100888.31;5026763;28;20049;-75
2022/04/25 08:35:38;;;;;;;26.63;21.50;;;;;;;8.89;87.81;100889.16;5015699;28;20384;-74
2022/04/25 08:38:04;;;;;;;27.88;21.50;;;;;;;8.88;88.56;100892.91;5033920;28;20040;-74
2022/04/25 08:40:29;;;;;;;23.05;20.25;;;;;;;8.88;89.57;100903.69;5041119;28;20029;-76
2022/04/25 08:42:57;;;;;;;28.45;22.05;;;;;;;8.83;89.24;100904.34;5019557;28;20064;-73
2022/04/25 08:45:23;;;;;;;31.33;21.85;;;;;;;8.84;89.04;100903.28;4998303;28;20105;-74
2022/04/25 08:48:00;;;;;;;27.15;22.60;;;;;;;8.83;90.72;100907.03;5028394;28;20053;-72
2022/04/25 08:50:27;;;;;;;28.65;22.23;;;;;;;8.82;90.87;100910.75;5007642;28;20400;-72
2022/04/25 08:52:54;;;;;;;26.52;21.83;;;;;;;8.78;89.98;100914.09;5035614;28;20033;-73
2022/04/25 08:55:21;;;;;;;30.17;21.75;;;;;;;8.71;90.88;100910.59;5034565;28;20484;-72
2022/04/25 08:57:48;;;;;;;28.85;22.42;;;;;;;8.79;91.14;100918.47;5035444;28;20033;-72
2022/04/25 09:00:15;;;;;;;28.15;21.85;;;;;;;8.74;91.03;100912.84;5031641;28;20041;-74
2022/04/25 09:02:41;;;;;;;27.75;21.63;;;;;;;8.70;90.66;100917.84;5012920;28;20030;-74
2022/04/25 09:05:07;;;;;;;28.00;22.20;;;;;;;8.71;90.50;100918.69;5015081;28;20037;-74
2022/04/25 09:07:35;;;;;;;31.23;23.15;;;;;;;8.71;91.21;100918.69;4997833;28;20040;-72
2022/04/25 09:10:00;;;;;;;26.52;21.60;;;;;;;8.68;90.56;100931.56;5015795;28;20049;-74
2022/04/25 09:12:27;;;;;;;32.03;21.80;;;;;;;8.66;90.84;100935.50;5034437;28;20033;-75
2022/04/25 09:14:54;;;;;;;28.08;21.48;;;;;;;8.65;90.82;100937.38;5034817;28;20044;-72
2022/04/25 09:17:22;;;;;;;26.55;21.98;;;;;;;8.65;90.87;100940.06;5034811;28;20025;-74
2022/04/25 09:19:48;;;;;;;26.92;22.02;;;;;;;8.71;91.75;100937.56;5017587;28;20033;-73
2022/04/25 09:22:29;;;;;;;38.03;24.00;;;;;;;8.74;91.88;100938.00;5017291;28;20048;-71
2022/04/25 09:25:02;;;;;;;27.27;22.40;;;;;;;8.74;91.14;100942.53;5017424;28;20065;-73
2022/04/25 09:27:28;;;;;;;29.80;23.20;;;;;;;8.78;90.70;100946.47;5034788;28;20040;-74
2022/04/25 09:29:53;;;;;;;30.42;22.95;;;;;;;8.77;92.02;100939.41;5034337;28;20486;-78
2022/04/25 09:32:30;;;;;;;30.13;22.42;;;;;;;8.75;91.17;100945.03;5036098;28;20030;-73
2022/04/25 09:35:03;;;;;;;29.42;22.90;;;;;;;8.76;91.60;100945.88;5034886;28;20116;-74
2022/04/25 09:37:39;;;;;;;28.23;23.30;;;;;;;8.76;91.25;100941.28;5025478;28;20025;-73
2022/04/25 09:40:05;;;;;;;31.10;23.73;;;;;;;8.69;92.03;100944.00;5032536;28;20055;-74
2022/04/25 09:42:30;;;;;;;30.92;23.67;;;;;;;8.76;92.36;100943.16;5033904;28;20532;-72
2022/04/25 09:44:58;;;;;;;30.85;25.33;;;;;;;8.76;92.18;100951.28;5033607;28;20459;-71
2022/04/25 09:47:27;;;;;;;29.45;24.08;;;;;;;8.75;92.03;100945.03;5033329;28;20034;-72
2022/04/25 09:50:00;;;;;;;32.38;24.95;;;;;;;8.79;92.63;100946.28;5018612;28;20099;-72
2022/04/25 09:52:26;;;;;;;29.50;23.55;;;;;;;8.83;92.73;100954.75;5014164;28;20045;-74
2022/04/25 09:54:52;;;;;;;27.75;24.08;;;;;;;8.91;92.64;100954.56;5034424;28;20103;-74
2022/04/25 09:57:32;;;;;;;27.40;23.88;;;;;;;8.99;93.53;100959.72;5053824;28;20524;-73
2022/04/25 09:59:59;;;;;;;27.90;23.50;;;;;;;9.01;92.00;100957.66;5054136;28;20110;-72
2022/04/25 10:02:25;;;;;;;34.25;23.92;;;;;;;9.10;92.24;100960.09;5033265;28;20503;-75
2022/04/25 10:04:50;;;;;;;24.17;20.83;;;;;;;9.08;91.28;100967.59;5051979;28;20032;-72
2022/04/25 10:07:17;;;;;;;26.75;22.33;;;;;;;9.06;91.61;100970.50;5031132;28;20064;-73
2022/04/25 10:09:44;;;;;;;27.75;21.98;;;;;;;9.05;91.52;100972.34;5017300;28;20164;-72
2022/04/25 10:12:09;;;;;;;25.60;20.15;;;;;;;9.07;91.74;100969.44;5010389;28;20089;-73
2022/04/25 10:14:37;;;;;;;25.75;21.48;;;;;;;9.10;92.29;100965.50;4995646;28;20441;-74
2022/04/25 10:17:03;;;;;;;23.33;20.80;;;;;;;9.12;91.30;100980.44;4986584;28;20049;-74
2022/04/25 10:19:29;;;;;;;26.77;20.08;;;;;;;9.14;90.98;100977.53;5010970;28;20030;-72
2022/04/25 10:21:55;;;;;;;22.10;19.05;;;;;;;9.16;90.78;100976.28;5009807;28;20537;-74
2022/04/25 10:24:21;;;;;;;23.40;19.88;;;;;;;9.14;91.20;100980.25;4993977;28;20026;-73
2022/04/25 10:26:48;;;;;;;23.55;19.35;;;;;;;9.16;90.93;100978.16;4994490;28;20109;-71
2022/04/25 10:29:25;;;;;;;24.02;20.63;;;;;;;9.18;91.69;100984.19;4994186;28;20113;-72
2022/04/25 10:31:57;;;;;;;24.02;20.10;;;;;;;9.21;91.30;100983.75;4994355;28;20089;-74
2022/04/25 10:34:51;;;;;;;22.10;19.40;;;;;;;9.30;91.65;100990.56;4983162;28;20077;-71
2022/04/25 10:37:39;;;;;;;23.40;19.38;;;;;;;9.36;91.58;100996.97;5013721;28;20026;-71
2022/04/25 10:40:07;;;;;;;21.73;18.83;;;;;;;9.32;91.04;101001.16;5013582;28;20029;-71
2022/04/25 10:45:52;;;;;;;21.52;19.13;;;;;;;9.29;90.51;101005.09;5013597;28;20197;-74
2022/04/25 10:48:17;;;;;;;21.58;18.73;;;;;;;9.30;90.15;101004.06;5013825;28;20026;-74
2022/04/25 10:51:07;;;;;;;21.75;19.42;;;;;;;9.31;90.50;101003.00;5007666;28;20034;-72
2022/04/25 10:54:01;;;;;;;21.48;19.13;;;;;;;9.29;90.54;101005.09;4994101;28;20441;-74
2022/04/25 10:56:28;;;;;;;20.73;18.33;;;;;;;9.25;90.70;101006.56;5012805;28;20108;-72
2022/04/25 10:59:26;;;;;;;21.17;17.35;;;;;;;9.28;90.02;101011.53;5017217;28;20062;-71
2022/04/25 11:01:53;;;;;;;22.45;18.67;;;;;;;9.16;89.94;101008.69;4978101;28;20027;-71
2022/04/25 11:04:20;;;;;;;21.50;18.75;;;;;;;9.21;90.66;101006.19;4991902;28;20027;-74
2022/04/25 11:06:47;;;;;;;22.15;18.83;;;;;;;9.20;91.07;101009.09;4994298;28;20034;-72
2022/04/25 11:09:36;;;;;;;22.67;18.85;;;;;;;9.25;90.94;101017.38;4993608;28;20569;-75
2022/04/25 11:12:01;;;;;;;22.52;19.40;;;;;;;9.28;91.05;101016.94;5011609;28;20049;-74
2022/04/25 11:14:28;;;;;;;21.92;18.23;;;;;;;9.27;90.87;101015.31;4995397;28;20030;-75
2022/04/25 11:17:11;;;;;;;23.23;17.95;;;;;;;9.32;90.67;101020.06;5010860;28;20429;-73
2022/04/25 11:19:51;;;;;;;21.35;17.27;;;;;;;9.34;91.41;101026.88;4999375;28;20497;-74
2022/04/25 11:22:41;;;;;;;18.00;16.10;;;;;;;9.39;89.68;101024.41;5000717;28;20108;-72
2022/04/25 11:25:24;;;;;;;23.13;17.45;;;;;;;9.44;90.67;101025.66;5007816;28;20034;-72
2022/04/25 11:28:04;;;;;;;21.90;17.65;;;;;;;9.44;90.98;101031.88;5000428;28;20037;-73
2022/04/25 11:30:29;;;;;;;21.15;16.77;;;;;;;9.44;89.89;101039.16;4992798;28;20030;-71
2022/04/25 11:33:02;;;;;;;21.05;17.10;;;;;;;9.38;90.85;101036.25;5009713;28;20026;-72
2022/04/25 11:35:27;;;;;;;22.25;16.38;;;;;;;9.27;89.31;101045.00;5012602;28;20046;-72
2022/04/25 11:37:56;;;;;;;21.88;16.10;;;;;;;9.21;90.47;101035.06;4993032;28;20389;-71
2022/04/25 11:40:22;;;;;;;21.38;16.45;;;;;;;9.20;91.18;101036.91;5004615;28;20034;-72
2022/04/25 11:42:47;;;;;;;24.38;17.38;;;;;;;9.22;90.03;101039.41;4998256;28;20038;-73
2022/04/25 11:45:13;;;;;;;20.25;17.17;;;;;;;9.23;90.25;101041.06;4993269;28;20466;-71